Flight Briefing for CMB833

Departure Arrival
Ramstein Air Force Base (ETAR)
Click to view FAA NOTAMS
Bagram Air Base (OAIX)
Click to view FAA NOTAMS
Departure Time Arrival Time
N/A N/A
Aircraft Distance
B767-300BDSF 2799nm
Departure METAR Arrival METAR
ETAR 212211Z AUTO 00000KT 9999 FEW075 SCT085 11/11 A3003 RMK AO2 RAB01E11 SLP173 $ OAIX 212158Z 08005KT 9999 FEW130 18/08 A3000 RMK AO2A SLP080 T01800075 $
Suggested Route





View recent IFR Routes data
Notes
USTRANSCOM CONTRACT FLIGHT

Charts and Procedures

Charts for ETAR
No chart available
Charts for OAIX
No chart available

Windy.com Weather Map